Woodburn, IA (50275)

10:25 AM CST on February 09, 2016 (GMT -0600)
Osceola Municipal | | Change Station
CLOSE
Current Station
Airport
Location: Osceola Municipal,
Elevation: 1109 ft
Nearby Weather Stations

Elev 1109 ft 41.05 °N, 93.69 °W | Updated 10 minutes ago

Mostly Cloudy
Mostly Cloudy
13 °F
Feels Like -5 °F
N
20
Wind Variable Wind from NW
Gusts 24 mph

Today
High -- | Low -- °F
--% Chance of Precip.
Yesterday
High -- | Low -- °F
Precip. -- in
Pressure 30.12 in
Visibility 10.0 miles
Clouds Scattered Clouds 1800 ft
Windchill -5 °F
Dew Point 5 °F
Humidity 73%
Rainfall 0.00 in
Snow Depth Not available.
7:16 AM 5:41 PM
New Moon, 2% visible
METAR KI75 091615Z AUTO 32017G21KT 10SM SCT018 M11/M15 A3012 RMK AO2 T11081148
Pressure 30.12 in
Visibility 10.0 miles
Clouds Scattered Clouds 1800 ft
Windchill -5 °F
Dew Point 5 °F
Humidity 73%
Rainfall 0.00 in
Snow Depth Not available.
7:16 AM 5:41 PM
New Moon, 2% visible
METAR KI75 091615Z AUTO 32017G21KT 10SM SCT018 M11/M15 A3012 RMK AO2 T11081148

10-Day Weather Forecast

Almanac

Astronomy

Feb. 09, 2016 Rise Set
Actual Time
Civil Twilight
Nautical Twilight
Astronomical Twilight
Moon
Length of Visible Light
Length of Day
Tomorrow will be .
, % of the Moon is Illuminated

Today's Extremes

State Highs State Lows

Community

WunderPhotos

Upload Photos

1,891,633 photos uploaded!

WunderBlog® & News

Nearby

Air Quality

  Air Quality AQ Index Pollutant
Not available.

Snow Depth

Station Depth Elevation

Earthquake Activity

City Distance Mag. Time & Date
Minimum magnitude displayed is 2.5.

Coastal Water Temperatures

Place Temperature

Stations

Nearby Weather Stations

Station Location Temp. Windchill Dew Point Humidity Wind Precip. Elev Updated Type
                   

Watches & Warnings

There are currently no watches in effect.